sensor_id;sensor_type;location;lat;lon;timestamp;P1;durP1;ratioP1;P2;durP2;ratioP2
12441;SDS011;6285;48.804;9.220;2023-03-23T00:01:48;4.18;;;3.00;;
12441;SDS011;6285;48.804;9.220;2023-03-23T00:04:15;8.13;;;4.43;;
12441;SDS011;6285;48.804;9.220;2023-03-23T00:06:43;7.43;;;3.38;;
12441;SDS011;6285;48.804;9.220;2023-03-23T00:09:11;6.45;;;3.08;;
12441;SDS011;6285;48.804;9.220;2023-03-23T00:11:40;5.32;;;2.58;;
12441;SDS011;6285;48.804;9.220;2023-03-23T00:14:08;5.10;;;2.55;;
12441;SDS011;6285;48.804;9.220;2023-03-23T00:16:40;7.72;;;2.53;;
12441;SDS011;6285;48.804;9.220;2023-03-23T00:19:08;4.22;;;2.22;;
12441;SDS011;6285;48.804;9.220;2023-03-23T00:21:38;4.20;;;2.50;;
12441;SDS011;6285;48.804;9.220;2023-03-23T00:24:07;3.17;;;2.40;;
12441;SDS011;6285;48.804;9.220;2023-03-23T00:26:35;6.32;;;2.75;;
12441;SDS011;6285;48.804;9.220;2023-03-23T00:29:05;4.30;;;2.90;;
12441;SDS011;6285;48.804;9.220;2023-03-23T00:31:34;3.85;;;2.20;;
12441;SDS011;6285;48.804;9.220;2023-03-23T00:34:03;4.57;;;2.28;;
12441;SDS011;6285;48.804;9.220;2023-03-23T00:36:31;3.70;;;2.00;;
12441;SDS011;6285;48.804;9.220;2023-03-23T00:39:00;3.53;;;2.53;;
12441;SDS011;6285;48.804;9.220;2023-03-23T00:41:28;3.88;;;2.53;;
12441;SDS011;6285;48.804;9.220;2023-03-23T00:43:56;4.93;;;2.60;;
12441;SDS011;6285;48.804;9.220;2023-03-23T00:46:25;2.72;;;2.00;;
12441;SDS011;6285;48.804;9.220;2023-03-23T00:48:53;4.78;;;2.20;;
12441;SDS011;6285;48.804;9.220;2023-03-23T00:51:23;4.30;;;2.22;;
12441;SDS011;6285;48.804;9.220;2023-03-23T00:53:50;4.93;;;2.60;;
12441;SDS011;6285;48.804;9.220;2023-03-23T00:56:18;5.50;;;3.00;;
12441;SDS011;6285;48.804;9.220;2023-03-23T00:58:48;9.25;;;3.40;;
12441;SDS011;6285;48.804;9.220;2023-03-23T01:01:16;8.30;;;3.95;;
12441;SDS011;6285;48.804;9.220;2023-03-23T01:03:45;9.85;;;3.88;;
12441;SDS011;6285;48.804;9.220;2023-03-23T01:06:12;6.75;;;3.80;;
12441;SDS011;6285;48.804;9.220;2023-03-23T01:08:42;7.35;;;3.70;;
12441;SDS011;6285;48.804;9.220;2023-03-23T01:11:12;5.82;;;3.67;;
12441;SDS011;6285;48.804;9.220;2023-03-23T01:13:40;6.63;;;3.22;;
12441;SDS011;6285;48.804;9.220;2023-03-23T01:16:09;5.65;;;3.55;;
12441;SDS011;6285;48.804;9.220;2023-03-23T01:18:36;5.95;;;3.38;;
12441;SDS011;6285;48.804;9.220;2023-03-23T01:21:04;5.40;;;3.38;;
12441;SDS011;6285;48.804;9.220;2023-03-23T01:23:33;4.57;;;2.83;;
12441;SDS011;6285;48.804;9.220;2023-03-23T01:26:06;3.40;;;2.70;;
12441;SDS011;6285;48.804;9.220;2023-03-23T01:28:34;3.92;;;2.00;;
12441;SDS011;6285;48.804;9.220;2023-03-23T01:31:01;2.90;;;1.95;;
12441;SDS011;6285;48.804;9.220;2023-03-23T01:33:29;2.67;;;1.70;;
12441;SDS011;6285;48.804;9.220;2023-03-23T01:35:56;2.75;;;1.83;;
12441;SDS011;6285;48.804;9.220;2023-03-23T01:38:23;3.95;;;1.92;;
12441;SDS011;6285;48.804;9.220;2023-03-23T01:40:51;3.10;;;1.60;;
12441;SDS011;6285;48.804;9.220;2023-03-23T01:43:19;2.38;;;1.98;;
12441;SDS011;6285;48.804;9.220;2023-03-23T01:45:46;4.85;;;1.88;;
12441;SDS011;6285;48.804;9.220;2023-03-23T01:48:15;2.30;;;1.55;;
12441;SDS011;6285;48.804;9.220;2023-03-23T01:50:47;2.85;;;1.60;;
12441;SDS011;6285;48.804;9.220;2023-03-23T01:53:16;1.95;;;1.55;;
12441;SDS011;6285;48.804;9.220;2023-03-23T01:55:44;1.92;;;1.65;;
12441;SDS011;6285;48.804;9.220;2023-03-23T01:58:13;3.42;;;1.90;;
12441;SDS011;6285;48.804;9.220;2023-03-23T02:00:42;2.00;;;1.40;;
12441;SDS011;6285;48.804;9.220;2023-03-23T02:03:10;2.47;;;1.60;;
12441;SDS011;6285;48.804;9.220;2023-03-23T02:05:41;3.35;;;1.80;;
12441;SDS011;6285;48.804;9.220;2023-03-23T02:08:08;3.47;;;1.98;;
12441;SDS011;6285;48.804;9.220;2023-03-23T02:10:37;3.97;;;1.80;;
12441;SDS011;6285;48.804;9.220;2023-03-23T02:13:05;2.25;;;1.83;;
12441;SDS011;6285;48.804;9.220;2023-03-23T02:15:34;4.50;;;1.95;;
12441;SDS011;6285;48.804;9.220;2023-03-23T02:18:06;2.45;;;2.00;;
12441;SDS011;6285;48.804;9.220;2023-03-23T02:20:40;3.75;;;2.30;;
12441;SDS011;6285;48.804;9.220;2023-03-23T02:26:11;5.05;;;2.85;;
12441;SDS011;6285;48.804;9.220;2023-03-23T02:28:53;7.80;;;3.65;;
12441;SDS011;6285;48.804;9.220;2023-03-23T02:31:39;7.03;;;3.53;;
12441;SDS011;6285;48.804;9.220;2023-03-23T02:34:32;4.78;;;3.38;;
12441;SDS011;6285;48.804;9.220;2023-03-23T02:37:03;4.45;;;3.17;;
12441;SDS011;6285;48.804;9.220;2023-03-23T02:39:32;5.93;;;3.20;;
12441;SDS011;6285;48.804;9.220;2023-03-23T02:42:04;5.40;;;3.20;;
12441;SDS011;6285;48.804;9.220;2023-03-23T02:44:33;6.40;;;3.22;;
12441;SDS011;6285;48.804;9.220;2023-03-23T02:47:02;6.80;;;3.60;;
12441;SDS011;6285;48.804;9.220;2023-03-23T02:49:32;6.57;;;3.00;;
12441;SDS011;6285;48.804;9.220;2023-03-23T02:52:02;4.43;;;3.22;;
12441;SDS011;6285;48.804;9.220;2023-03-23T02:54:30;6.78;;;3.65;;
12441;SDS011;6285;48.804;9.220;2023-03-23T02:56:57;8.02;;;3.90;;
12441;SDS011;6285;48.804;9.220;2023-03-23T02:59:24;7.00;;;4.15;;
12441;SDS011;6285;48.804;9.220;2023-03-23T03:01:59;6.35;;;3.67;;
12441;SDS011;6285;48.804;9.220;2023-03-23T03:04:28;6.90;;;3.60;;
12441;SDS011;6285;48.804;9.220;2023-03-23T03:07:06;5.93;;;4.00;;
12441;SDS011;6285;48.804;9.220;2023-03-23T03:09:37;7.03;;;3.67;;
12441;SDS011;6285;48.804;9.220;2023-03-23T03:12:08;7.00;;;3.88;;
12441;SDS011;6285;48.804;9.220;2023-03-23T03:14:37;6.32;;;3.58;;
12441;SDS011;6285;48.804;9.220;2023-03-23T03:17:06;5.50;;;3.42;;
12441;SDS011;6285;48.804;9.220;2023-03-23T03:19:37;3.92;;;3.40;;
12441;SDS011;6285;48.804;9.220;2023-03-23T03:22:07;5.28;;;3.15;;
12441;SDS011;6285;48.804;9.220;2023-03-23T03:24:34;3.85;;;2.72;;
12441;SDS011;6285;48.804;9.220;2023-03-23T03:27:03;3.75;;;2.17;;
12441;SDS011;6285;48.804;9.220;2023-03-23T03:29:32;6.18;;;2.60;;
12441;SDS011;6285;48.804;9.220;2023-03-23T03:32:00;2.63;;;2.20;;
12441;SDS011;6285;48.804;9.220;2023-03-23T03:34:30;3.28;;;2.30;;
12441;SDS011;6285;48.804;9.220;2023-03-23T03:36:57;2.97;;;2.28;;
12441;SDS011;6285;48.804;9.220;2023-03-23T03:39:27;3.17;;;2.15;;
12441;SDS011;6285;48.804;9.220;2023-03-23T03:41:54;1.90;;;1.60;;
12441;SDS011;6285;48.804;9.220;2023-03-23T03:44:22;2.72;;;2.00;;
12441;SDS011;6285;48.804;9.220;2023-03-23T03:46:49;4.22;;;1.95;;
12441;SDS011;6285;48.804;9.220;2023-03-23T03:49:16;2.30;;;1.88;;
12441;SDS011;6285;48.804;9.220;2023-03-23T03:51:43;3.53;;;2.22;;
12441;SDS011;6285;48.804;9.220;2023-03-23T03:54:11;2.75;;;1.80;;
12441;SDS011;6285;48.804;9.220;2023-03-23T03:56:39;2.03;;;1.80;;
12441;SDS011;6285;48.804;9.220;2023-03-23T03:59:06;2.53;;;2.00;;
12441;SDS011;6285;48.804;9.220;2023-03-23T04:01:35;2.28;;;2.05;;
12441;SDS011;6285;48.804;9.220;2023-03-23T04:04:02;4.63;;;2.10;;
12441;SDS011;6285;48.804;9.220;2023-03-23T04:06:31;6.13;;;2.38;;
12441;SDS011;6285;48.804;9.220;2023-03-23T04:09:01;3.95;;;2.72;;
12441;SDS011;6285;48.804;9.220;2023-03-23T04:11:31;7.90;;;3.17;;
12441;SDS011;6285;48.804;9.220;2023-03-23T04:13:59;9.35;;;3.40;;
12441;SDS011;6285;48.804;9.220;2023-03-23T04:16:27;5.00;;;3.08;;
12441;SDS011;6285;48.804;9.220;2023-03-23T04:18:55;5.25;;;3.40;;
12441;SDS011;6285;48.804;9.220;2023-03-23T04:21:23;6.18;;;3.75;;
12441;SDS011;6285;48.804;9.220;2023-03-23T04:23:53;5.00;;;3.10;;
12441;SDS011;6285;48.804;9.220;2023-03-23T04:26:23;4.75;;;3.58;;
12441;SDS011;6285;48.804;9.220;2023-03-23T04:28:51;5.18;;;3.50;;
12441;SDS011;6285;48.804;9.220;2023-03-23T04:31:19;7.28;;;3.75;;
12441;SDS011;6285;48.804;9.220;2023-03-23T04:33:49;6.30;;;3.50;;
12441;SDS011;6285;48.804;9.220;2023-03-23T04:36:18;6.38;;;3.85;;
12441;SDS011;6285;48.804;9.220;2023-03-23T04:38:47;4.72;;;3.40;;
12441;SDS011;6285;48.804;9.220;2023-03-23T04:41:19;5.32;;;3.70;;
12441;SDS011;6285;48.804;9.220;2023-03-23T04:43:46;6.43;;;3.70;;
12441;SDS011;6285;48.804;9.220;2023-03-23T04:46:19;7.55;;;3.85;;
12441;SDS011;6285;48.804;9.220;2023-03-23T04:48:46;6.80;;;4.20;;
12441;SDS011;6285;48.804;9.220;2023-03-23T04:51:13;8.13;;;4.20;;
12441;SDS011;6285;48.804;9.220;2023-03-23T04:53:40;8.55;;;4.28;;
12441;SDS011;6285;48.804;9.220;2023-03-23T04:56:08;6.97;;;4.18;;
12441;SDS011;6285;48.804;9.220;2023-03-23T04:58:35;9.27;;;4.45;;
12441;SDS011;6285;48.804;9.220;2023-03-23T05:01:04;8.32;;;4.53;;
12441;SDS011;6285;48.804;9.220;2023-03-23T05:03:33;8.57;;;4.80;;
12441;SDS011;6285;48.804;9.220;2023-03-23T05:06:01;6.55;;;4.10;;
12441;SDS011;6285;48.804;9.220;2023-03-23T05:08:28;6.93;;;4.50;;
12441;SDS011;6285;48.804;9.220;2023-03-23T05:10:56;8.55;;;5.03;;
12441;SDS011;6285;48.804;9.220;2023-03-23T05:13:25;10.68;;;5.10;;
12441;SDS011;6285;48.804;9.220;2023-03-23T05:15:52;8.45;;;5.25;;
12441;SDS011;6285;48.804;9.220;2023-03-23T05:18:19;8.40;;;4.53;;
12441;SDS011;6285;48.804;9.220;2023-03-23T05:20:48;5.22;;;3.78;;
12441;SDS011;6285;48.804;9.220;2023-03-23T05:23:18;5.55;;;4.22;;
12441;SDS011;6285;48.804;9.220;2023-03-23T05:25:52;11.52;;;6.05;;
12441;SDS011;6285;48.804;9.220;2023-03-23T05:28:19;6.93;;;4.25;;
12441;SDS011;6285;48.804;9.220;2023-03-23T05:30:48;6.75;;;3.28;;
12441;SDS011;6285;48.804;9.220;2023-03-23T05:33:15;5.88;;;3.53;;
12441;SDS011;6285;48.804;9.220;2023-03-23T05:35:42;6.47;;;3.60;;
12441;SDS011;6285;48.804;9.220;2023-03-23T05:38:11;5.25;;;3.22;;
12441;SDS011;6285;48.804;9.220;2023-03-23T05:40:39;2.58;;;2.15;;
12441;SDS011;6285;48.804;9.220;2023-03-23T05:43:07;3.42;;;2.00;;
12441;SDS011;6285;48.804;9.220;2023-03-23T05:45:34;3.58;;;2.13;;
12441;SDS011;6285;48.804;9.220;2023-03-23T05:48:01;3.00;;;1.70;;
12441;SDS011;6285;48.804;9.220;2023-03-23T05:50:29;2.20;;;1.55;;
12441;SDS011;6285;48.804;9.220;2023-03-23T05:52:56;2.67;;;1.70;;
12441;SDS011;6285;48.804;9.220;2023-03-23T05:55:25;2.50;;;1.50;;
12441;SDS011;6285;48.804;9.220;2023-03-23T05:57:52;2.95;;;1.50;;
12441;SDS011;6285;48.804;9.220;2023-03-23T06:00:19;3.05;;;1.50;;
12441;SDS011;6285;48.804;9.220;2023-03-23T06:02:48;2.17;;;1.30;;
12441;SDS011;6285;48.804;9.220;2023-03-23T06:05:16;3.35;;;1.70;;
12441;SDS011;6285;48.804;9.220;2023-03-23T06:07:44;3.22;;;1.63;;
12441;SDS011;6285;48.804;9.220;2023-03-23T06:10:11;2.45;;;1.38;;
12441;SDS011;6285;48.804;9.220;2023-03-23T06:12:41;1.75;;;1.40;;
12441;SDS011;6285;48.804;9.220;2023-03-23T06:15:08;2.13;;;1.40;;
12441;SDS011;6285;48.804;9.220;2023-03-23T06:17:36;5.63;;;1.70;;
12441;SDS011;6285;48.804;9.220;2023-03-23T06:20:04;2.75;;;1.50;;
12441;SDS011;6285;48.804;9.220;2023-03-23T06:22:35;3.13;;;1.55;;
12441;SDS011;6285;48.804;9.220;2023-03-23T06:25:04;4.85;;;1.50;;
12441;SDS011;6285;48.804;9.220;2023-03-23T06:27:31;2.88;;;1.60;;
12441;SDS011;6285;48.804;9.220;2023-03-23T06:30:02;4.10;;;1.70;;
12441;SDS011;6285;48.804;9.220;2023-03-23T06:32:29;2.50;;;1.40;;
12441;SDS011;6285;48.804;9.220;2023-03-23T06:34:57;3.53;;;1.60;;
12441;SDS011;6285;48.804;9.220;2023-03-23T06:37:24;1.90;;;1.80;;
12441;SDS011;6285;48.804;9.220;2023-03-23T06:39:51;4.00;;;1.58;;
12441;SDS011;6285;48.804;9.220;2023-03-23T06:42:19;2.05;;;1.55;;
12441;SDS011;6285;48.804;9.220;2023-03-23T06:44:46;3.92;;;2.00;;
12441;SDS011;6285;48.804;9.220;2023-03-23T06:47:14;3.40;;;1.77;;
12441;SDS011;6285;48.804;9.220;2023-03-23T06:49:40;3.38;;;1.80;;
12441;SDS011;6285;48.804;9.220;2023-03-23T06:52:07;4.63;;;2.22;;
12441;SDS011;6285;48.804;9.220;2023-03-23T06:54:35;3.13;;;1.55;;
12441;SDS011;6285;48.804;9.220;2023-03-23T06:57:02;4.03;;;1.60;;
12441;SDS011;6285;48.804;9.220;2023-03-23T06:59:29;4.75;;;1.60;;
12441;SDS011;6285;48.804;9.220;2023-03-23T07:01:56;4.25;;;1.60;;
12441;SDS011;6285;48.804;9.220;2023-03-23T07:04:24;4.43;;;1.40;;
12441;SDS011;6285;48.804;9.220;2023-03-23T07:06:51;3.67;;;1.67;;
12441;SDS011;6285;48.804;9.220;2023-03-23T07:09:18;2.40;;;1.73;;
12441;SDS011;6285;48.804;9.220;2023-03-23T07:11:45;4.03;;;1.63;;
12441;SDS011;6285;48.804;9.220;2023-03-23T07:14:12;4.25;;;1.60;;
12441;SDS011;6285;48.804;9.220;2023-03-23T07:16:40;4.50;;;1.83;;
12441;SDS011;6285;48.804;9.220;2023-03-23T07:19:07;5.57;;;1.90;;
12441;SDS011;6285;48.804;9.220;2023-03-23T07:21:35;5.20;;;2.40;;
12441;SDS011;6285;48.804;9.220;2023-03-23T07:24:03;5.85;;;2.22;;
12441;SDS011;6285;48.804;9.220;2023-03-23T07:26:30;4.05;;;2.05;;
12441;SDS011;6285;48.804;9.220;2023-03-23T07:28:57;4.82;;;2.03;;
12441;SDS011;6285;48.804;9.220;2023-03-23T07:31:24;4.20;;;1.65;;
12441;SDS011;6285;48.804;9.220;2023-03-23T07:33:51;2.85;;;1.92;;
12441;SDS011;6285;48.804;9.220;2023-03-23T07:36:19;4.32;;;1.63;;
12441;SDS011;6285;48.804;9.220;2023-03-23T07:38:47;3.22;;;1.95;;
12441;SDS011;6285;48.804;9.220;2023-03-23T07:41:15;4.28;;;1.90;;
12441;SDS011;6285;48.804;9.220;2023-03-23T07:43:42;7.25;;;1.73;;
12441;SDS011;6285;48.804;9.220;2023-03-23T07:46:09;4.65;;;2.15;;
12441;SDS011;6285;48.804;9.220;2023-03-23T07:48:36;3.63;;;1.80;;
12441;SDS011;6285;48.804;9.220;2023-03-23T07:51:04;4.35;;;2.03;;
12441;SDS011;6285;48.804;9.220;2023-03-23T07:53:31;3.10;;;1.90;;
12441;SDS011;6285;48.804;9.220;2023-03-23T07:55:59;4.38;;;2.00;;
12441;SDS011;6285;48.804;9.220;2023-03-23T07:58:28;2.35;;;1.60;;
12441;SDS011;6285;48.804;9.220;2023-03-23T08:00:55;3.28;;;1.65;;
12441;SDS011;6285;48.804;9.220;2023-03-23T08:03:22;2.25;;;1.48;;
12441;SDS011;6285;48.804;9.220;2023-03-23T08:05:50;3.05;;;1.30;;
12441;SDS011;6285;48.804;9.220;2023-03-23T08:08:17;2.17;;;1.40;;
12441;SDS011;6285;48.804;9.220;2023-03-23T08:10:44;3.42;;;1.55;;
12441;SDS011;6285;48.804;9.220;2023-03-23T08:13:13;1.98;;;1.52;;
12441;SDS011;6285;48.804;9.220;2023-03-23T08:15:40;2.08;;;1.52;;
12441;SDS011;6285;48.804;9.220;2023-03-23T08:18:07;2.42;;;1.60;;
12441;SDS011;6285;48.804;9.220;2023-03-23T08:20:34;2.25;;;1.75;;
12441;SDS011;6285;48.804;9.220;2023-03-23T08:23:01;4.82;;;1.92;;
12441;SDS011;6285;48.804;9.220;2023-03-23T08:25:29;2.40;;;1.60;;
12441;SDS011;6285;48.804;9.220;2023-03-23T08:27:57;2.00;;;1.45;;
12441;SDS011;6285;48.804;9.220;2023-03-23T08:30:28;2.90;;;1.60;;
12441;SDS011;6285;48.804;9.220;2023-03-23T08:32:55;3.47;;;1.65;;
12441;SDS011;6285;48.804;9.220;2023-03-23T08:35:23;2.30;;;1.70;;
12441;SDS011;6285;48.804;9.220;2023-03-23T08:37:50;2.17;;;1.50;;
12441;SDS011;6285;48.804;9.220;2023-03-23T08:40:18;1.90;;;1.40;;
12441;SDS011;6285;48.804;9.220;2023-03-23T08:42:47;2.20;;;1.58;;
12441;SDS011;6285;48.804;9.220;2023-03-23T08:45:15;2.35;;;1.63;;
12441;SDS011;6285;48.804;9.220;2023-03-23T08:47:44;4.75;;;1.73;;
12441;SDS011;6285;48.804;9.220;2023-03-23T08:50:15;2.83;;;1.50;;
12441;SDS011;6285;48.804;9.220;2023-03-23T08:52:43;2.35;;;1.52;;
12441;SDS011;6285;48.804;9.220;2023-03-23T08:55:10;2.67;;;1.60;;
12441;SDS011;6285;48.804;9.220;2023-03-23T08:57:37;2.47;;;2.25;;
12441;SDS011;6285;48.804;9.220;2023-03-23T09:00:06;1.77;;;1.50;;
12441;SDS011;6285;48.804;9.220;2023-03-23T09:02:39;1.70;;;1.58;;
12441;SDS011;6285;48.804;9.220;2023-03-23T09:05:08;2.38;;;1.42;;
12441;SDS011;6285;48.804;9.220;2023-03-23T09:07:36;3.88;;;1.75;;
12441;SDS011;6285;48.804;9.220;2023-03-23T09:10:03;1.63;;;1.35;;
12441;SDS011;6285;48.804;9.220;2023-03-23T09:12:30;2.63;;;1.60;;
12441;SDS011;6285;48.804;9.220;2023-03-23T09:14:58;2.72;;;1.70;;
12441;SDS011;6285;48.804;9.220;2023-03-23T09:17:28;3.38;;;1.50;;
12441;SDS011;6285;48.804;9.220;2023-03-23T09:19:55;2.33;;;1.67;;
12441;SDS011;6285;48.804;9.220;2023-03-23T09:22:23;3.17;;;1.73;;
12441;SDS011;6285;48.804;9.220;2023-03-23T09:24:50;3.85;;;1.75;;
12441;SDS011;6285;48.804;9.220;2023-03-23T09:27:17;4.47;;;1.85;;
12441;SDS011;6285;48.804;9.220;2023-03-23T09:29:46;5.18;;;1.80;;
12441;SDS011;6285;48.804;9.220;2023-03-23T09:32:14;3.08;;;1.70;;
12441;SDS011;6285;48.804;9.220;2023-03-23T09:34:41;2.35;;;1.77;;
12441;SDS011;6285;48.804;9.220;2023-03-23T09:37:07;4.32;;;2.25;;
12441;SDS011;6285;48.804;9.220;2023-03-23T09:39:37;2.35;;;1.63;;
12441;SDS011;6285;48.804;9.220;2023-03-23T09:42:07;4.50;;;2.10;;
12441;SDS011;6285;48.804;9.220;2023-03-23T09:44:41;3.35;;;1.83;;
12441;SDS011;6285;48.804;9.220;2023-03-23T09:47:13;4.55;;;2.22;;
12441;SDS011;6285;48.804;9.220;2023-03-23T09:49:48;2.10;;;1.60;;
12441;SDS011;6285;48.804;9.220;2023-03-23T09:52:18;5.82;;;2.00;;
12441;SDS011;6285;48.804;9.220;2023-03-23T09:54:47;3.03;;;1.50;;
12441;SDS011;6285;48.804;9.220;2023-03-23T09:57:16;2.55;;;1.85;;
12441;SDS011;6285;48.804;9.220;2023-03-23T09:59:45;4.45;;;1.90;;
12441;SDS011;6285;48.804;9.220;2023-03-23T10:02:15;2.08;;;1.40;;
12441;SDS011;6285;48.804;9.220;2023-03-23T10:07:11;1.85;;;1.40;;
12441;SDS011;6285;48.804;9.220;2023-03-23T10:09:38;4.47;;;1.67;;
12441;SDS011;6285;48.804;9.220;2023-03-23T10:12:09;1.88;;;1.20;;
12441;SDS011;6285;48.804;9.220;2023-03-23T10:14:44;3.22;;;1.67;;
12441;SDS011;6285;48.804;9.220;2023-03-23T10:17:14;2.25;;;1.40;;
12441;SDS011;6285;48.804;9.220;2023-03-23T10:19:46;1.90;;;1.50;;
12441;SDS011;6285;48.804;9.220;2023-03-23T10:25:02;2.55;;;1.55;;
12441;SDS011;6285;48.804;9.220;2023-03-23T10:27:32;3.53;;;1.58;;
12441;SDS011;6285;48.804;9.220;2023-03-23T10:30:01;2.65;;;1.70;;
12441;SDS011;6285;48.804;9.220;2023-03-23T10:32:39;2.13;;;1.60;;
12441;SDS011;6285;48.804;9.220;2023-03-23T10:35:09;2.47;;;1.58;;
12441;SDS011;6285;48.804;9.220;2023-03-23T10:37:38;2.85;;;1.83;;
12441;SDS011;6285;48.804;9.220;2023-03-23T10:40:13;2.83;;;1.58;;
12441;SDS011;6285;48.804;9.220;2023-03-23T10:42:41;2.30;;;1.60;;
12441;SDS011;6285;48.804;9.220;2023-03-23T10:45:12;2.67;;;1.40;;
12441;SDS011;6285;48.804;9.220;2023-03-23T10:47:41;1.80;;;1.33;;
12441;SDS011;6285;48.804;9.220;2023-03-23T10:50:11;5.32;;;1.60;;
12441;SDS011;6285;48.804;9.220;2023-03-23T10:52:41;2.03;;;1.40;;
12441;SDS011;6285;48.804;9.220;2023-03-23T10:55:10;2.47;;;1.65;;
12441;SDS011;6285;48.804;9.220;2023-03-23T10:57:40;3.38;;;1.60;;
12441;SDS011;6285;48.804;9.220;2023-03-23T11:00:16;1.88;;;1.60;;
12441;SDS011;6285;48.804;9.220;2023-03-23T11:02:45;3.78;;;1.75;;
12441;SDS011;6285;48.804;9.220;2023-03-23T11:05:15;2.60;;;1.48;;
12441;SDS011;6285;48.804;9.220;2023-03-23T11:07:47;2.95;;;1.70;;
12441;SDS011;6285;48.804;9.220;2023-03-23T11:10:16;1.90;;;1.38;;
12441;SDS011;6285;48.804;9.220;2023-03-23T11:12:45;2.65;;;1.70;;
12441;SDS011;6285;48.804;9.220;2023-03-23T11:15:27;2.05;;;1.58;;
12441;SDS011;6285;48.804;9.220;2023-03-23T11:17:55;2.90;;;1.67;;
12441;SDS011;6285;48.804;9.220;2023-03-23T11:20:23;3.15;;;1.63;;
12441;SDS011;6285;48.804;9.220;2023-03-23T11:22:51;2.63;;;1.80;;
12441;SDS011;6285;48.804;9.220;2023-03-23T11:25:19;4.82;;;1.88;;
12441;SDS011;6285;48.804;9.220;2023-03-23T11:27:47;2.33;;;1.70;;
12441;SDS011;6285;48.804;9.220;2023-03-23T11:30:19;2.13;;;1.55;;
12441;SDS011;6285;48.804;9.220;2023-03-23T11:32:47;2.80;;;1.77;;
12441;SDS011;6285;48.804;9.220;2023-03-23T11:35:16;2.72;;;1.50;;
12441;SDS011;6285;48.804;9.220;2023-03-23T11:37:46;4.63;;;1.88;;
12441;SDS011;6285;48.804;9.220;2023-03-23T11:40:14;2.58;;;1.80;;
12441;SDS011;6285;48.804;9.220;2023-03-23T11:42:44;1.48;;;1.38;;
12441;SDS011;6285;48.804;9.220;2023-03-23T11:45:30;2.00;;;1.80;;
12441;SDS011;6285;48.804;9.220;2023-03-23T11:48:01;2.58;;;1.67;;
12441;SDS011;6285;48.804;9.220;2023-03-23T11:50:32;2.85;;;1.98;;
12441;SDS011;6285;48.804;9.220;2023-03-23T11:53:00;2.10;;;1.75;;
12441;SDS011;6285;48.804;9.220;2023-03-23T11:55:30;1.95;;;1.48;;
12441;SDS011;6285;48.804;9.220;2023-03-23T11:58:03;2.55;;;1.80;;
12441;SDS011;6285;48.804;9.220;2023-03-23T12:00:43;2.72;;;2.00;;
12441;SDS011;6285;48.804;9.220;2023-03-23T12:03:12;1.80;;;1.60;;
12441;SDS011;6285;48.804;9.220;2023-03-23T12:05:43;5.35;;;1.75;;
12441;SDS011;6285;48.804;9.220;2023-03-23T12:08:18;3.53;;;2.13;;
12441;SDS011;6285;48.804;9.220;2023-03-23T12:10:54;3.65;;;1.65;;
12441;SDS011;6285;48.804;9.220;2023-03-23T12:13:32;2.65;;;1.90;;
12441;SDS011;6285;48.804;9.220;2023-03-23T12:16:20;1.90;;;1.70;;
12441;SDS011;6285;48.804;9.220;2023-03-23T12:20:41;2.55;;;1.70;;
12441;SDS011;6285;48.804;9.220;2023-03-23T12:23:15;4.43;;;1.67;;
12441;SDS011;6285;48.804;9.220;2023-03-23T12:28:57;3.33;;;2.07;;
12441;SDS011;6285;48.804;9.220;2023-03-23T12:31:52;3.60;;;1.70;;
12441;SDS011;6285;48.804;9.220;2023-03-23T12:34:24;1.75;;;1.40;;
12441;SDS011;6285;48.804;9.220;2023-03-23T12:36:58;2.25;;;1.70;;
12441;SDS011;6285;48.804;9.220;2023-03-23T12:39:38;2.80;;;1.60;;
12441;SDS011;6285;48.804;9.220;2023-03-23T12:42:10;3.40;;;1.52;;
12441;SDS011;6285;48.804;9.220;2023-03-23T12:44:42;2.13;;;1.50;;
12441;SDS011;6285;48.804;9.220;2023-03-23T12:47:13;3.00;;;1.67;;
12441;SDS011;6285;48.804;9.220;2023-03-23T12:49:46;1.83;;;1.63;;
12441;SDS011;6285;48.804;9.220;2023-03-23T12:52:18;3.05;;;1.90;;
12441;SDS011;6285;48.804;9.220;2023-03-23T12:54:50;1.63;;;1.40;;
12441;SDS011;6285;48.804;9.220;2023-03-23T12:57:21;3.50;;;1.60;;
12441;SDS011;6285;48.804;9.220;2023-03-23T12:59:56;2.90;;;1.73;;
12441;SDS011;6285;48.804;9.220;2023-03-23T13:02:27;2.90;;;1.60;;
12441;SDS011;6285;48.804;9.220;2023-03-23T13:04:57;3.35;;;1.85;;
12441;SDS011;6285;48.804;9.220;2023-03-23T13:07:30;2.50;;;1.40;;
12441;SDS011;6285;48.804;9.220;2023-03-23T13:10:01;2.53;;;1.88;;
12441;SDS011;6285;48.804;9.220;2023-03-23T13:12:30;2.28;;;1.70;;
12441;SDS011;6285;48.804;9.220;2023-03-23T13:15:02;1.77;;;1.38;;
12441;SDS011;6285;48.804;9.220;2023-03-23T13:17:35;1.80;;;1.60;;
12441;SDS011;6285;48.804;9.220;2023-03-23T13:22:48;2.60;;;1.63;;
12441;SDS011;6285;48.804;9.220;2023-03-23T13:25:18;3.10;;;1.70;;
12441;SDS011;6285;48.804;9.220;2023-03-23T13:27:55;3.78;;;1.63;;
12441;SDS011;6285;48.804;9.220;2023-03-23T13:30:23;2.08;;;1.58;;
12441;SDS011;6285;48.804;9.220;2023-03-23T13:33:00;2.95;;;2.10;;
12441;SDS011;6285;48.804;9.220;2023-03-23T13:35:32;2.65;;;1.77;;
12441;SDS011;6285;48.804;9.220;2023-03-23T13:38:01;2.08;;;1.70;;
12441;SDS011;6285;48.804;9.220;2023-03-23T13:40:40;2.53;;;1.50;;
12441;SDS011;6285;48.804;9.220;2023-03-23T13:43:09;2.05;;;1.75;;
12441;SDS011;6285;48.804;9.220;2023-03-23T13:45:42;5.05;;;2.00;;
12441;SDS011;6285;48.804;9.220;2023-03-23T13:48:18;2.67;;;1.90;;
12441;SDS011;6285;48.804;9.220;2023-03-23T13:50:49;3.30;;;2.45;;
12441;SDS011;6285;48.804;9.220;2023-03-23T13:53:23;3.08;;;1.95;;
12441;SDS011;6285;48.804;9.220;2023-03-23T13:55:51;4.00;;;1.83;;
12441;SDS011;6285;48.804;9.220;2023-03-23T13:58:22;4.05;;;1.85;;
12441;SDS011;6285;48.804;9.220;2023-03-23T14:00:50;4.82;;;1.88;;
12441;SDS011;6285;48.804;9.220;2023-03-23T14:03:32;8.75;;;3.33;;
12441;SDS011;6285;48.804;9.220;2023-03-23T14:06:02;3.03;;;2.25;;
12441;SDS011;6285;48.804;9.220;2023-03-23T14:08:39;2.38;;;1.80;;
12441;SDS011;6285;48.804;9.220;2023-03-23T14:11:11;4.40;;;2.50;;
12441;SDS011;6285;48.804;9.220;2023-03-23T14:13:41;2.28;;;1.90;;
12441;SDS011;6285;48.804;9.220;2023-03-23T14:16:14;4.28;;;2.13;;
12441;SDS011;6285;48.804;9.220;2023-03-23T14:18:42;4.93;;;2.03;;
12441;SDS011;6285;48.804;9.220;2023-03-23T14:21:15;2.25;;;1.70;;
12441;SDS011;6285;48.804;9.220;2023-03-23T14:23:43;3.00;;;1.80;;
12441;SDS011;6285;48.804;9.220;2023-03-23T14:26:11;2.97;;;2.15;;
12441;SDS011;6285;48.804;9.220;2023-03-23T14:28:41;2.40;;;2.03;;
12441;SDS011;6285;48.804;9.220;2023-03-23T14:31:14;4.50;;;2.50;;
12441;SDS011;6285;48.804;9.220;2023-03-23T14:33:41;2.47;;;1.63;;
12441;SDS011;6285;48.804;9.220;2023-03-23T14:36:08;2.55;;;1.85;;
12441;SDS011;6285;48.804;9.220;2023-03-23T14:38:35;2.40;;;1.80;;
12441;SDS011;6285;48.804;9.220;2023-03-23T14:41:05;3.15;;;1.92;;
12441;SDS011;6285;48.804;9.220;2023-03-23T14:43:33;4.72;;;2.10;;
12441;SDS011;6285;48.804;9.220;2023-03-23T14:46:01;3.63;;;1.83;;
12441;SDS011;6285;48.804;9.220;2023-03-23T14:48:28;2.15;;;1.60;;
12441;SDS011;6285;48.804;9.220;2023-03-23T14:50:56;3.30;;;2.20;;
12441;SDS011;6285;48.804;9.220;2023-03-23T14:53:24;4.35;;;2.00;;
12441;SDS011;6285;48.804;9.220;2023-03-23T14:55:52;2.33;;;2.00;;
12441;SDS011;6285;48.804;9.220;2023-03-23T14:58:23;3.80;;;3.15;;
12441;SDS011;6285;48.804;9.220;2023-03-23T15:00:52;3.17;;;2.00;;
12441;SDS011;6285;48.804;9.220;2023-03-23T15:03:21;2.58;;;1.90;;
12441;SDS011;6285;48.804;9.220;2023-03-23T15:05:48;3.60;;;1.80;;
12441;SDS011;6285;48.804;9.220;2023-03-23T15:08:18;4.57;;;2.03;;
12441;SDS011;6285;48.804;9.220;2023-03-23T15:10:51;4.45;;;2.10;;
12441;SDS011;6285;48.804;9.220;2023-03-23T15:13:20;5.80;;;2.38;;
12441;SDS011;6285;48.804;9.220;2023-03-23T15:15:49;2.28;;;2.00;;
12441;SDS011;6285;48.804;9.220;2023-03-23T15:18:26;3.42;;;2.97;;
12441;SDS011;6285;48.804;9.220;2023-03-23T15:20:55;2.83;;;2.17;;
12441;SDS011;6285;48.804;9.220;2023-03-23T15:23:26;2.78;;;2.15;;
12441;SDS011;6285;48.804;9.220;2023-03-23T15:25:54;3.60;;;2.58;;
12441;SDS011;6285;48.804;9.220;2023-03-23T15:28:21;2.97;;;2.17;;
12441;SDS011;6285;48.804;9.220;2023-03-23T15:30:51;2.92;;;2.30;;